sensor_id;sensor_type;location;lat;lon;timestamp;P1;durP1;ratioP1;P2;durP2;ratioP2
35518;SDS011;21627;48.216;16.482;2023-04-25T00:01:12;2.50;;;1.92;;
35518;SDS011;21627;48.216;16.482;2023-04-25T00:03:39;2.88;;;1.67;;
35518;SDS011;21627;48.216;16.482;2023-04-25T00:06:07;2.92;;;1.65;;
35518;SDS011;21627;48.216;16.482;2023-04-25T00:08:34;3.35;;;1.77;;
35518;SDS011;21627;48.216;16.482;2023-04-25T00:11:02;2.38;;;1.80;;
35518;SDS011;21627;48.216;16.482;2023-04-25T00:13:29;7.28;;;1.75;;
35518;SDS011;21627;48.216;16.482;2023-04-25T00:15:56;1.98;;;1.70;;
35518;SDS011;21627;48.216;16.482;2023-04-25T00:18:24;1.92;;;1.45;;
35518;SDS011;21627;48.216;16.482;2023-04-25T00:20:51;5.50;;;1.70;;
35518;SDS011;21627;48.216;16.482;2023-04-25T00:23:18;4.28;;;1.80;;
35518;SDS011;21627;48.216;16.482;2023-04-25T00:25:46;5.88;;;1.60;;
35518;SDS011;21627;48.216;16.482;2023-04-25T00:28:15;2.70;;;1.70;;
35518;SDS011;21627;48.216;16.482;2023-04-25T00:30:42;2.25;;;1.30;;
35518;SDS011;21627;48.216;16.482;2023-04-25T00:33:10;3.85;;;1.65;;
35518;SDS011;21627;48.216;16.482;2023-04-25T00:35:37;2.13;;;1.60;;
35518;SDS011;21627;48.216;16.482;2023-04-25T00:38:04;2.03;;;1.60;;
35518;SDS011;21627;48.216;16.482;2023-04-25T00:40:32;1.77;;;1.50;;
35518;SDS011;21627;48.216;16.482;2023-04-25T00:42:59;3.65;;;1.52;;
35518;SDS011;21627;48.216;16.482;2023-04-25T00:45:29;4.07;;;1.60;;
35518;SDS011;21627;48.216;16.482;2023-04-25T00:47:57;1.80;;;1.27;;
35518;SDS011;21627;48.216;16.482;2023-04-25T00:50:24;2.50;;;1.90;;
35518;SDS011;21627;48.216;16.482;2023-04-25T00:52:51;5.57;;;1.98;;
35518;SDS011;21627;48.216;16.482;2023-04-25T00:55:18;5.32;;;1.77;;
35518;SDS011;21627;48.216;16.482;2023-04-25T00:57:46;2.30;;;1.73;;
35518;SDS011;21627;48.216;16.482;2023-04-25T01:00:13;4.38;;;1.70;;
35518;SDS011;21627;48.216;16.482;2023-04-25T01:02:41;3.83;;;1.55;;
35518;SDS011;21627;48.216;16.482;2023-04-25T01:05:09;2.88;;;2.13;;
35518;SDS011;21627;48.216;16.482;2023-04-25T01:07:38;5.55;;;1.90;;
35518;SDS011;21627;48.216;16.482;2023-04-25T01:10:06;2.90;;;1.70;;
35518;SDS011;21627;48.216;16.482;2023-04-25T01:12:34;3.88;;;1.77;;
35518;SDS011;21627;48.216;16.482;2023-04-25T01:15:01;2.05;;;1.38;;
35518;SDS011;21627;48.216;16.482;2023-04-25T01:17:29;3.67;;;1.35;;
35518;SDS011;21627;48.216;16.482;2023-04-25T01:19:57;2.63;;;1.80;;
35518;SDS011;21627;48.216;16.482;2023-04-25T01:22:25;2.38;;;1.75;;
35518;SDS011;21627;48.216;16.482;2023-04-25T01:24:52;2.85;;;2.00;;
35518;SDS011;21627;48.216;16.482;2023-04-25T01:27:19;3.45;;;1.85;;
35518;SDS011;21627;48.216;16.482;2023-04-25T01:29:49;3.97;;;1.98;;
35518;SDS011;21627;48.216;16.482;2023-04-25T01:32:17;3.17;;;1.92;;
35518;SDS011;21627;48.216;16.482;2023-04-25T01:34:45;6.70;;;1.98;;
35518;SDS011;21627;48.216;16.482;2023-04-25T01:37:12;4.93;;;1.95;;
35518;SDS011;21627;48.216;16.482;2023-04-25T01:39:39;3.63;;;1.95;;
35518;SDS011;21627;48.216;16.482;2023-04-25T01:42:07;2.70;;;1.98;;
35518;SDS011;21627;48.216;16.482;2023-04-25T01:44:34;2.20;;;2.00;;
35518;SDS011;21627;48.216;16.482;2023-04-25T01:47:01;7.05;;;1.85;;
35518;SDS011;21627;48.216;16.482;2023-04-25T01:49:29;2.22;;;1.73;;
35518;SDS011;21627;48.216;16.482;2023-04-25T01:51:56;2.55;;;1.67;;
35518;SDS011;21627;48.216;16.482;2023-04-25T01:54:23;2.22;;;1.88;;
35518;SDS011;21627;48.216;16.482;2023-04-25T01:56:50;2.40;;;1.63;;
35518;SDS011;21627;48.216;16.482;2023-04-25T01:59:18;2.55;;;1.80;;
35518;SDS011;21627;48.216;16.482;2023-04-25T02:01:46;5.93;;;2.20;;
35518;SDS011;21627;48.216;16.482;2023-04-25T02:04:13;2.63;;;1.92;;
35518;SDS011;21627;48.216;16.482;2023-04-25T02:06:41;4.30;;;1.85;;
35518;SDS011;21627;48.216;16.482;2023-04-25T02:09:08;3.17;;;1.90;;
35518;SDS011;21627;48.216;16.482;2023-04-25T02:11:35;7.40;;;2.15;;
35518;SDS011;21627;48.216;16.482;2023-04-25T02:14:03;2.53;;;2.13;;
35518;SDS011;21627;48.216;16.482;2023-04-25T02:16:30;2.45;;;1.90;;
35518;SDS011;21627;48.216;16.482;2023-04-25T02:18:57;5.38;;;1.88;;
35518;SDS011;21627;48.216;16.482;2023-04-25T02:21:25;5.57;;;2.15;;
35518;SDS011;21627;48.216;16.482;2023-04-25T02:23:52;3.25;;;2.10;;
35518;SDS011;21627;48.216;16.482;2023-04-25T02:26:20;5.35;;;2.03;;
35518;SDS011;21627;48.216;16.482;2023-04-25T02:28:50;3.90;;;2.05;;
35518;SDS011;21627;48.216;16.482;2023-04-25T02:31:18;4.88;;;2.17;;
35518;SDS011;21627;48.216;16.482;2023-04-25T02:33:45;2.58;;;2.00;;
35518;SDS011;21627;48.216;16.482;2023-04-25T02:36:14;2.65;;;1.95;;
35518;SDS011;21627;48.216;16.482;2023-04-25T02:38:41;2.40;;;1.95;;
35518;SDS011;21627;48.216;16.482;2023-04-25T02:41:08;3.15;;;1.98;;
35518;SDS011;21627;48.216;16.482;2023-04-25T02:43:35;8.60;;;1.70;;
35518;SDS011;21627;48.216;16.482;2023-04-25T02:46:03;2.03;;;1.83;;
35518;SDS011;21627;48.216;16.482;2023-04-25T02:48:30;4.28;;;2.03;;
35518;SDS011;21627;48.216;16.482;2023-04-25T02:50:57;2.67;;;2.10;;
35518;SDS011;21627;48.216;16.482;2023-04-25T02:53:24;5.80;;;2.58;;
35518;SDS011;21627;48.216;16.482;2023-04-25T02:55:51;2.97;;;2.38;;
35518;SDS011;21627;48.216;16.482;2023-04-25T02:58:19;4.25;;;2.08;;
35518;SDS011;21627;48.216;16.482;2023-04-25T03:00:46;5.10;;;2.03;;
35518;SDS011;21627;48.216;16.482;2023-04-25T03:03:14;3.65;;;2.08;;
35518;SDS011;21627;48.216;16.482;2023-04-25T03:05:44;2.33;;;2.03;;
35518;SDS011;21627;48.216;16.482;2023-04-25T03:08:13;3.78;;;2.45;;
35518;SDS011;21627;48.216;16.482;2023-04-25T03:10:40;2.80;;;2.28;;
35518;SDS011;21627;48.216;16.482;2023-04-25T03:13:07;4.70;;;2.40;;
35518;SDS011;21627;48.216;16.482;2023-04-25T03:15:35;2.25;;;2.05;;
35518;SDS011;21627;48.216;16.482;2023-04-25T03:18:02;3.83;;;2.33;;
35518;SDS011;21627;48.216;16.482;2023-04-25T03:20:30;3.42;;;2.38;;
35518;SDS011;21627;48.216;16.482;2023-04-25T03:22:57;3.35;;;2.00;;
35518;SDS011;21627;48.216;16.482;2023-04-25T03:25:24;7.75;;;2.20;;
35518;SDS011;21627;48.216;16.482;2023-04-25T03:27:51;3.90;;;2.20;;
35518;SDS011;21627;48.216;16.482;2023-04-25T03:30:18;4.18;;;2.70;;
35518;SDS011;21627;48.216;16.482;2023-04-25T03:32:46;2.80;;;2.13;;
35518;SDS011;21627;48.216;16.482;2023-04-25T03:35:13;3.47;;;2.47;;
35518;SDS011;21627;48.216;16.482;2023-04-25T03:37:40;4.03;;;2.10;;
35518;SDS011;21627;48.216;16.482;2023-04-25T03:40:11;3.47;;;1.98;;
35518;SDS011;21627;48.216;16.482;2023-04-25T03:42:38;5.75;;;2.50;;
35518;SDS011;21627;48.216;16.482;2023-04-25T03:45:06;4.50;;;2.40;;
35518;SDS011;21627;48.216;16.482;2023-04-25T03:47:34;4.18;;;2.28;;
35518;SDS011;21627;48.216;16.482;2023-04-25T03:50:01;2.97;;;2.30;;
35518;SDS011;21627;48.216;16.482;2023-04-25T03:52:29;4.22;;;2.72;;
35518;SDS011;21627;48.216;16.482;2023-04-25T03:54:56;3.45;;;2.50;;
35518;SDS011;21627;48.216;16.482;2023-04-25T03:57:23;6.28;;;2.65;;
35518;SDS011;21627;48.216;16.482;2023-04-25T03:59:50;3.42;;;2.50;;
35518;SDS011;21627;48.216;16.482;2023-04-25T04:02:18;4.40;;;2.63;;
35518;SDS011;21627;48.216;16.482;2023-04-25T04:04:45;4.72;;;2.33;;
35518;SDS011;21627;48.216;16.482;2023-04-25T04:07:13;3.20;;;2.55;;
35518;SDS011;21627;48.216;16.482;2023-04-25T04:09:40;2.80;;;2.28;;
35518;SDS011;21627;48.216;16.482;2023-04-25T04:12:07;6.18;;;2.40;;
35518;SDS011;21627;48.216;16.482;2023-04-25T04:14:34;4.85;;;2.55;;
35518;SDS011;21627;48.216;16.482;2023-04-25T04:17:01;3.10;;;2.40;;
35518;SDS011;21627;48.216;16.482;2023-04-25T04:19:28;6.00;;;2.97;;
35518;SDS011;21627;48.216;16.482;2023-04-25T04:21:56;3.65;;;2.83;;
35518;SDS011;21627;48.216;16.482;2023-04-25T04:24:23;6.57;;;2.80;;
35518;SDS011;21627;48.216;16.482;2023-04-25T04:26:50;3.80;;;2.55;;
35518;SDS011;21627;48.216;16.482;2023-04-25T04:29:18;8.07;;;2.88;;
35518;SDS011;21627;48.216;16.482;2023-04-25T04:31:50;4.72;;;3.08;;
35518;SDS011;21627;48.216;16.482;2023-04-25T04:34:19;3.30;;;2.97;;
35518;SDS011;21627;48.216;16.482;2023-04-25T04:36:46;3.28;;;2.80;;
35518;SDS011;21627;48.216;16.482;2023-04-25T04:39:14;4.38;;;2.50;;
35518;SDS011;21627;48.216;16.482;2023-04-25T04:41:41;3.92;;;2.63;;
35518;SDS011;21627;48.216;16.482;2023-04-25T04:44:09;5.40;;;2.60;;
35518;SDS011;21627;48.216;16.482;2023-04-25T04:46:36;4.10;;;2.50;;
35518;SDS011;21627;48.216;16.482;2023-04-25T04:49:09;4.32;;;2.70;;
35518;SDS011;21627;48.216;16.482;2023-04-25T04:51:37;3.53;;;2.70;;
35518;SDS011;21627;48.216;16.482;2023-04-25T04:54:04;5.20;;;3.05;;
35518;SDS011;21627;48.216;16.482;2023-04-25T04:56:32;6.25;;;2.90;;
35518;SDS011;21627;48.216;16.482;2023-04-25T04:58:59;5.97;;;3.08;;
35518;SDS011;21627;48.216;16.482;2023-04-25T05:01:26;5.35;;;2.83;;
35518;SDS011;21627;48.216;16.482;2023-04-25T05:03:53;3.83;;;2.83;;
35518;SDS011;21627;48.216;16.482;2023-04-25T05:06:27;8.23;;;3.15;;
35518;SDS011;21627;48.216;16.482;2023-04-25T05:08:55;6.05;;;3.22;;
35518;SDS011;21627;48.216;16.482;2023-04-25T05:11:26;3.95;;;2.50;;
35518;SDS011;21627;48.216;16.482;2023-04-25T05:13:54;6.22;;;2.47;;
35518;SDS011;21627;48.216;16.482;2023-04-25T05:16:21;6.78;;;2.90;;
35518;SDS011;21627;48.216;16.482;2023-04-25T05:18:48;4.97;;;2.78;;
35518;SDS011;21627;48.216;16.482;2023-04-25T05:21:15;7.65;;;3.33;;
35518;SDS011;21627;48.216;16.482;2023-04-25T05:23:42;4.75;;;3.03;;
35518;SDS011;21627;48.216;16.482;2023-04-25T05:26:10;4.50;;;2.63;;
35518;SDS011;21627;48.216;16.482;2023-04-25T05:28:40;3.85;;;2.63;;
35518;SDS011;21627;48.216;16.482;2023-04-25T05:31:11;5.13;;;2.75;;
35518;SDS011;21627;48.216;16.482;2023-04-25T05:33:39;6.25;;;2.80;;
35518;SDS011;21627;48.216;16.482;2023-04-25T05:36:06;6.30;;;3.20;;
35518;SDS011;21627;48.216;16.482;2023-04-25T05:38:34;4.50;;;3.10;;
35518;SDS011;21627;48.216;16.482;2023-04-25T05:41:01;4.07;;;2.80;;
35518;SDS011;21627;48.216;16.482;2023-04-25T05:43:28;2.65;;;2.42;;
35518;SDS011;21627;48.216;16.482;2023-04-25T05:45:55;3.45;;;2.53;;
35518;SDS011;21627;48.216;16.482;2023-04-25T05:48:23;4.63;;;3.20;;
35518;SDS011;21627;48.216;16.482;2023-04-25T05:50:50;5.63;;;3.08;;
35518;SDS011;21627;48.216;16.482;2023-04-25T05:53:18;4.63;;;2.75;;
35518;SDS011;21627;48.216;16.482;2023-04-25T05:55:48;4.70;;;3.47;;
35518;SDS011;21627;48.216;16.482;2023-04-25T05:58:16;5.30;;;2.95;;
35518;SDS011;21627;48.216;16.482;2023-04-25T06:00:43;8.57;;;3.13;;
35518;SDS011;21627;48.216;16.482;2023-04-25T06:03:11;7.20;;;3.50;;
35518;SDS011;21627;48.216;16.482;2023-04-25T06:05:44;5.35;;;3.33;;
35518;SDS011;21627;48.216;16.482;2023-04-25T06:08:12;6.45;;;3.17;;
35518;SDS011;21627;48.216;16.482;2023-04-25T06:10:39;4.85;;;3.00;;
35518;SDS011;21627;48.216;16.482;2023-04-25T06:13:06;6.25;;;3.30;;
35518;SDS011;21627;48.216;16.482;2023-04-25T06:15:33;3.65;;;3.10;;
35518;SDS011;21627;48.216;16.482;2023-04-25T06:18:01;4.95;;;3.08;;
35518;SDS011;21627;48.216;16.482;2023-04-25T06:20:28;7.22;;;3.00;;
35518;SDS011;21627;48.216;16.482;2023-04-25T06:22:56;4.40;;;3.10;;
35518;SDS011;21627;48.216;16.482;2023-04-25T06:25:23;5.72;;;2.88;;
35518;SDS011;21627;48.216;16.482;2023-04-25T06:27:50;7.35;;;3.17;;
35518;SDS011;21627;48.216;16.482;2023-04-25T06:30:17;4.30;;;2.53;;
35518;SDS011;21627;48.216;16.482;2023-04-25T06:32:48;4.28;;;2.70;;
35518;SDS011;21627;48.216;16.482;2023-04-25T06:35:16;6.45;;;2.92;;
35518;SDS011;21627;48.216;16.482;2023-04-25T06:37:43;6.70;;;2.88;;
35518;SDS011;21627;48.216;16.482;2023-04-25T06:40:10;3.70;;;2.55;;
35518;SDS011;21627;48.216;16.482;2023-04-25T06:42:38;8.43;;;2.53;;
35518;SDS011;21627;48.216;16.482;2023-04-25T06:45:05;5.60;;;2.72;;
35518;SDS011;21627;48.216;16.482;2023-04-25T06:47:33;6.43;;;2.70;;
35518;SDS011;21627;48.216;16.482;2023-04-25T06:50:00;4.95;;;2.80;;
35518;SDS011;21627;48.216;16.482;2023-04-25T06:52:27;4.88;;;2.72;;
35518;SDS011;21627;48.216;16.482;2023-04-25T06:54:54;4.88;;;2.67;;
35518;SDS011;21627;48.216;16.482;2023-04-25T06:57:21;3.13;;;2.55;;
35518;SDS011;21627;48.216;16.482;2023-04-25T06:59:48;5.35;;;2.60;;
35518;SDS011;21627;48.216;16.482;2023-04-25T07:02:15;2.95;;;2.50;;
35518;SDS011;21627;48.216;16.482;2023-04-25T07:04:43;4.25;;;2.67;;
35518;SDS011;21627;48.216;16.482;2023-04-25T07:07:11;5.80;;;2.83;;
35518;SDS011;21627;48.216;16.482;2023-04-25T07:09:38;2.80;;;2.20;;
35518;SDS011;21627;48.216;16.482;2023-04-25T07:12:06;8.55;;;3.83;;
35518;SDS011;21627;48.216;16.482;2023-04-25T07:14:33;6.03;;;2.35;;
35518;SDS011;21627;48.216;16.482;2023-04-25T07:17:00;8.50;;;3.10;;
35518;SDS011;21627;48.216;16.482;2023-04-25T07:19:27;5.82;;;2.58;;
35518;SDS011;21627;48.216;16.482;2023-04-25T07:21:56;8.07;;;3.05;;
35518;SDS011;21627;48.216;16.482;2023-04-25T07:24:23;3.63;;;2.65;;
35518;SDS011;21627;48.216;16.482;2023-04-25T07:26:50;3.47;;;2.60;;
35518;SDS011;21627;48.216;16.482;2023-04-25T07:29:17;6.85;;;2.90;;
35518;SDS011;21627;48.216;16.482;2023-04-25T07:31:44;5.63;;;2.70;;
35518;SDS011;21627;48.216;16.482;2023-04-25T07:34:11;5.97;;;2.90;;
35518;SDS011;21627;48.216;16.482;2023-04-25T07:36:38;11.50;;;3.50;;
35518;SDS011;21627;48.216;16.482;2023-04-25T07:39:06;5.57;;;3.22;;
35518;SDS011;21627;48.216;16.482;2023-04-25T07:41:35;6.68;;;2.95;;
35518;SDS011;21627;48.216;16.482;2023-04-25T07:44:02;6.60;;;3.13;;
35518;SDS011;21627;48.216;16.482;2023-04-25T07:46:30;4.88;;;3.35;;
35518;SDS011;21627;48.216;16.482;2023-04-25T07:48:57;3.70;;;2.78;;
35518;SDS011;21627;48.216;16.482;2023-04-25T07:51:24;4.30;;;2.90;;
35518;SDS011;21627;48.216;16.482;2023-04-25T07:53:52;3.38;;;2.42;;
35518;SDS011;21627;48.216;16.482;2023-04-25T07:56:19;6.63;;;3.13;;
35518;SDS011;21627;48.216;16.482;2023-04-25T07:58:46;4.70;;;2.70;;
35518;SDS011;21627;48.216;16.482;2023-04-25T08:01:13;4.03;;;2.70;;
35518;SDS011;21627;48.216;16.482;2023-04-25T08:03:40;7.20;;;2.70;;
35518;SDS011;21627;48.216;16.482;2023-04-25T08:06:08;4.32;;;2.70;;
35518;SDS011;21627;48.216;16.482;2023-04-25T08:08:35;4.82;;;2.47;;
35518;SDS011;21627;48.216;16.482;2023-04-25T08:11:02;6.18;;;2.15;;
35518;SDS011;21627;48.216;16.482;2023-04-25T08:13:30;4.95;;;2.95;;
35518;SDS011;21627;48.216;16.482;2023-04-25T08:15:57;3.67;;;2.63;;
35518;SDS011;21627;48.216;16.482;2023-04-25T08:18:24;3.38;;;2.40;;
35518;SDS011;21627;48.216;16.482;2023-04-25T08:20:51;2.42;;;2.22;;
35518;SDS011;21627;48.216;16.482;2023-04-25T08:23:18;4.18;;;2.25;;
35518;SDS011;21627;48.216;16.482;2023-04-25T08:25:45;4.47;;;2.75;;
35518;SDS011;21627;48.216;16.482;2023-04-25T08:28:12;5.38;;;2.58;;
35518;SDS011;21627;48.216;16.482;2023-04-25T08:30:41;2.58;;;2.10;;
35518;SDS011;21627;48.216;16.482;2023-04-25T08:33:08;2.97;;;2.17;;
35518;SDS011;21627;48.216;16.482;2023-04-25T08:35:37;4.57;;;2.42;;
35518;SDS011;21627;48.216;16.482;2023-04-25T08:38:04;1.88;;;1.58;;
35518;SDS011;21627;48.216;16.482;2023-04-25T08:40:32;6.35;;;2.65;;
35518;SDS011;21627;48.216;16.482;2023-04-25T08:43:05;3.70;;;2.50;;
35518;SDS011;21627;48.216;16.482;2023-04-25T08:45:38;4.95;;;2.10;;
35518;SDS011;21627;48.216;16.482;2023-04-25T08:48:10;9.02;;;2.15;;
35518;SDS011;21627;48.216;16.482;2023-04-25T08:50:52;3.67;;;1.70;;
35518;SDS011;21627;48.216;16.482;2023-04-25T08:53:22;3.47;;;2.08;;
35518;SDS011;21627;48.216;16.482;2023-04-25T08:55:54;3.85;;;1.80;;
35518;SDS011;21627;48.216;16.482;2023-04-25T08:58:23;3.90;;;1.88;;
35518;SDS011;21627;48.216;16.482;2023-04-25T09:00:51;3.92;;;2.00;;
35518;SDS011;21627;48.216;16.482;2023-04-25T09:03:19;4.88;;;2.25;;
35518;SDS011;21627;48.216;16.482;2023-04-25T09:05:46;3.67;;;2.13;;
35518;SDS011;21627;48.216;16.482;2023-04-25T09:08:13;3.28;;;2.10;;
35518;SDS011;21627;48.216;16.482;2023-04-25T09:10:40;4.75;;;2.55;;
35518;SDS011;21627;48.216;16.482;2023-04-25T09:15:47;2.72;;;1.92;;
35518;SDS011;21627;48.216;16.482;2023-04-25T09:18:26;7.35;;;2.53;;
35518;SDS011;21627;48.216;16.482;2023-04-25T09:21:05;3.67;;;2.17;;
35518;SDS011;21627;48.216;16.482;2023-04-25T09:23:40;3.45;;;2.40;;
35518;SDS011;21627;48.216;16.482;2023-04-25T09:26:18;3.50;;;2.45;;
35518;SDS011;21627;48.216;16.482;2023-04-25T09:28:46;3.33;;;2.10;;
35518;SDS011;21627;48.216;16.482;2023-04-25T09:31:23;6.35;;;3.00;;
35518;SDS011;21627;48.216;16.482;2023-04-25T09:33:58;4.65;;;2.33;;
35518;SDS011;21627;48.216;16.482;2023-04-25T09:36:30;2.65;;;1.92;;
35518;SDS011;21627;48.216;16.482;2023-04-25T09:38:58;5.05;;;2.75;;
35518;SDS011;21627;48.216;16.482;2023-04-25T09:41:27;6.40;;;2.35;;
35518;SDS011;21627;48.216;16.482;2023-04-25T09:43:56;2.33;;;1.58;;
35518;SDS011;21627;48.216;16.482;2023-04-25T09:46:32;5.18;;;1.85;;
35518;SDS011;21627;48.216;16.482;2023-04-25T09:49:06;5.97;;;2.10;;
35518;SDS011;21627;48.216;16.482;2023-04-25T09:51:34;2.67;;;1.95;;
35518;SDS011;21627;48.216;16.482;2023-04-25T09:54:01;3.65;;;2.30;;
35518;SDS011;21627;48.216;16.482;2023-04-25T09:56:29;4.80;;;2.47;;
35518;SDS011;21627;48.216;16.482;2023-04-25T09:59:03;3.35;;;1.95;;
35518;SDS011;21627;48.216;16.482;2023-04-25T10:01:33;3.63;;;1.70;;
35518;SDS011;21627;48.216;16.482;2023-04-25T10:04:02;3.05;;;1.95;;
35518;SDS011;21627;48.216;16.482;2023-04-25T10:06:32;7.90;;;2.20;;
35518;SDS011;21627;48.216;16.482;2023-04-25T10:09:02;2.88;;;2.10;;
35518;SDS011;21627;48.216;16.482;2023-04-25T10:11:30;4.35;;;2.03;;
35518;SDS011;21627;48.216;16.482;2023-04-25T10:13:59;3.78;;;2.20;;
35518;SDS011;21627;48.216;16.482;2023-04-25T10:16:27;3.50;;;1.48;;
35518;SDS011;21627;48.216;16.482;2023-04-25T10:18:55;6.72;;;1.70;;
35518;SDS011;21627;48.216;16.482;2023-04-25T10:21:22;1.83;;;1.30;;
35518;SDS011;21627;48.216;16.482;2023-04-25T10:23:54;6.18;;;1.55;;
35518;SDS011;21627;48.216;16.482;2023-04-25T10:26:21;5.13;;;1.58;;
35518;SDS011;21627;48.216;16.482;2023-04-25T10:28:59;3.50;;;1.48;;
35518;SDS011;21627;48.216;16.482;2023-04-25T10:31:31;2.10;;;1.23;;
35518;SDS011;21627;48.216;16.482;2023-04-25T10:33:59;1.70;;;1.20;;
35518;SDS011;21627;48.216;16.482;2023-04-25T10:36:27;1.83;;;1.05;;
35518;SDS011;21627;48.216;16.482;2023-04-25T10:39:02;2.45;;;1.50;;
35518;SDS011;21627;48.216;16.482;2023-04-25T10:41:45;2.83;;;1.30;;
35518;SDS011;21627;48.216;16.482;2023-04-25T10:44:14;2.67;;;1.40;;
35518;SDS011;21627;48.216;16.482;2023-04-25T10:46:41;3.00;;;1.35;;
35518;SDS011;21627;48.216;16.482;2023-04-25T10:49:28;6.38;;;1.48;;
35518;SDS011;21627;48.216;16.482;2023-04-25T10:54:56;2.90;;;1.13;;
35518;SDS011;21627;48.216;16.482;2023-04-25T11:02:52;2.80;;;1.00;;
35518;SDS011;21627;48.216;16.482;2023-04-25T11:08:16;1.75;;;0.80;;
35518;SDS011;21627;48.216;16.482;2023-04-25T11:11:00;1.77;;;1.08;;
35518;SDS011;21627;48.216;16.482;2023-04-25T11:13:29;2.55;;;1.05;;
35518;SDS011;21627;48.216;16.482;2023-04-25T11:15:57;3.03;;;0.90;;
35518;SDS011;21627;48.216;16.482;2023-04-25T11:18:40;2.72;;;0.90;;
35518;SDS011;21627;48.216;16.482;2023-04-25T11:21:09;2.33;;;1.20;;
35518;SDS011;21627;48.216;16.482;2023-04-25T11:23:37;4.28;;;1.00;;
35518;SDS011;21627;48.216;16.482;2023-04-25T11:26:04;1.70;;;0.80;;
35518;SDS011;21627;48.216;16.482;2023-04-25T11:28:31;1.95;;;0.88;;
35518;SDS011;21627;48.216;16.482;2023-04-25T11:30:58;1.75;;;0.98;;
35518;SDS011;21627;48.216;16.482;2023-04-25T11:33:25;1.45;;;1.02;;
35518;SDS011;21627;48.216;16.482;2023-04-25T11:35:56;4.78;;;1.10;;
35518;SDS011;21627;48.216;16.482;2023-04-25T11:38:24;2.13;;;1.20;;
35518;SDS011;21627;48.216;16.482;2023-04-25T11:40:54;2.70;;;1.17;;
35518;SDS011;21627;48.216;16.482;2023-04-25T11:43:22;2.55;;;1.20;;
35518;SDS011;21627;48.216;16.482;2023-04-25T11:45:52;2.85;;;1.50;;
35518;SDS011;21627;48.216;16.482;2023-04-25T11:48:19;3.13;;;1.50;;
35518;SDS011;21627;48.216;16.482;2023-04-25T11:51:06;6.25;;;1.90;;
35518;SDS011;21627;48.216;16.482;2023-04-25T11:53:34;1.58;;;1.27;;
35518;SDS011;21627;48.216;16.482;2023-04-25T11:56:02;3.05;;;1.80;;
35518;SDS011;21627;48.216;16.482;2023-04-25T12:01:31;3.60;;;1.40;;
35518;SDS011;21627;48.216;16.482;2023-04-25T12:04:11;4.70;;;1.35;;
35518;SDS011;21627;48.216;16.482;2023-04-25T12:06:44;5.22;;;1.30;;
35518;SDS011;21627;48.216;16.482;2023-04-25T12:09:18;1.85;;;1.20;;
35518;SDS011;21627;48.216;16.482;2023-04-25T12:11:48;3.13;;;1.35;;
35518;SDS011;21627;48.216;16.482;2023-04-25T12:14:21;2.10;;;1.10;;
35518;SDS011;21627;48.216;16.482;2023-04-25T12:16:59;2.38;;;0.88;;
35518;SDS011;21627;48.216;16.482;2023-04-25T12:19:35;3.05;;;1.25;;
35518;SDS011;21627;48.216;16.482;2023-04-25T12:22:19;2.55;;;1.10;;
35518;SDS011;21627;48.216;16.482;2023-04-25T12:24:49;2.33;;;1.10;;
35518;SDS011;21627;48.216;16.482;2023-04-25T12:27:16;1.63;;;0.90;;
35518;SDS011;21627;48.216;16.482;2023-04-25T12:29:52;2.65;;;1.10;;
35518;SDS011;21627;48.216;16.482;2023-04-25T12:32:22;3.20;;;1.38;;
35518;SDS011;21627;48.216;16.482;2023-04-25T12:34:50;1.30;;;0.90;;
35518;SDS011;21627;48.216;16.482;2023-04-25T12:37:17;3.83;;;1.17;;
35518;SDS011;21627;48.216;16.482;2023-04-25T12:39:44;2.22;;;1.02;;
35518;SDS011;21627;48.216;16.482;2023-04-25T12:42:11;4.07;;;1.42;;
35518;SDS011;21627;48.216;16.482;2023-04-25T12:44:39;2.10;;;1.00;;
35518;SDS011;21627;48.216;16.482;2023-04-25T12:47:07;1.08;;;0.82;;
35518;SDS011;21627;48.216;16.482;2023-04-25T12:49:34;1.60;;;0.90;;
35518;SDS011;21627;48.216;16.482;2023-04-25T12:52:01;3.60;;;0.93;;
35518;SDS011;21627;48.216;16.482;2023-04-25T12:54:28;1.20;;;0.68;;
35518;SDS011;21627;48.216;16.482;2023-04-25T12:56:56;4.18;;;1.13;;
35518;SDS011;21627;48.216;16.482;2023-04-25T12:59:23;5.28;;;0.90;;
35518;SDS011;21627;48.216;16.482;2023-04-25T13:01:50;4.40;;;0.73;;
35518;SDS011;21627;48.216;16.482;2023-04-25T13:04:17;2.08;;;0.93;;
35518;SDS011;21627;48.216;16.482;2023-04-25T13:06:47;1.45;;;0.80;;
35518;SDS011;21627;48.216;16.482;2023-04-25T13:09:14;4.00;;;0.60;;
35518;SDS011;21627;48.216;16.482;2023-04-25T13:11:42;5.47;;;1.10;;
35518;SDS011;21627;48.216;16.482;2023-04-25T13:14:09;1.52;;;0.75;;
35518;SDS011;21627;48.216;16.482;2023-04-25T13:16:37;1.67;;;0.68;;
35518;SDS011;21627;48.216;16.482;2023-04-25T13:19:04;4.57;;;1.02;;
35518;SDS011;21627;48.216;16.482;2023-04-25T13:21:34;2.50;;;0.80;;
35518;SDS011;21627;48.216;16.482;2023-04-25T13:24:01;2.42;;;0.60;;
35518;SDS011;21627;48.216;16.482;2023-04-25T13:26:28;0.68;;;0.55;;
35518;SDS011;21627;48.216;16.482;2023-04-25T13:28:55;1.30;;;0.63;;
35518;SDS011;21627;48.216;16.482;2023-04-25T13:31:23;1.80;;;0.93;;
35518;SDS011;21627;48.216;16.482;2023-04-25T13:33:51;4.40;;;0.85;;
35518;SDS011;21627;48.216;16.482;2023-04-25T13:36:18;2.53;;;1.00;;
35518;SDS011;21627;48.216;16.482;2023-04-25T13:38:46;1.77;;;0.55;;
35518;SDS011;21627;48.216;16.482;2023-04-25T13:41:15;1.77;;;0.60;;
35518;SDS011;21627;48.216;16.482;2023-04-25T13:43:46;1.08;;;0.55;;
35518;SDS011;21627;48.216;16.482;2023-04-25T13:46:14;1.85;;;1.00;;
35518;SDS011;21627;48.216;16.482;2023-04-25T13:49:01;0.77;;;0.57;;
35518;SDS011;21627;48.216;16.482;2023-04-25T13:51:38;1.00;;;0.50;;
35518;SDS011;21627;48.216;16.482;2023-04-25T13:54:05;1.50;;;0.63;;
35518;SDS011;21627;48.216;16.482;2023-04-25T13:56:32;1.23;;;0.40;;
35518;SDS011;21627;48.216;16.482;2023-04-25T13:59:00;3.97;;;0.82;;
35518;SDS011;21627;48.216;16.482;2023-04-25T14:01:27;2.83;;;0.70;;
35518;SDS011;21627;48.216;16.482;2023-04-25T14:03:56;1.85;;;0.80;;
35518;SDS011;21627;48.216;16.482;2023-04-25T14:06:24;1.08;;;0.70;;
35518;SDS011;21627;48.216;16.482;2023-04-25T14:08:51;1.85;;;0.65;;
35518;SDS011;21627;48.216;16.482;2023-04-25T14:11:18;2.13;;;0.70;;
35518;SDS011;21627;48.216;16.482;2023-04-25T14:13:46;1.45;;;0.70;;
35518;SDS011;21627;48.216;16.482;2023-04-25T14:16:18;3.00;;;0.90;;
35518;SDS011;21627;48.216;16.482;2023-04-25T14:18:46;3.25;;;0.73;;
35518;SDS011;21627;48.216;16.482;2023-04-25T14:21:14;14.25;;;1.33;;
35518;SDS011;21627;48.216;16.482;2023-04-25T14:23:41;1.75;;;0.82;;
35518;SDS011;21627;48.216;16.482;2023-04-25T14:26:08;3.22;;;1.17;;
35518;SDS011;21627;48.216;16.482;2023-04-25T14:28:38;1.60;;;0.82;;
35518;SDS011;21627;48.216;16.482;2023-04-25T14:31:06;5.60;;;1.40;;
35518;SDS011;21627;48.216;16.482;2023-04-25T14:33:33;2.95;;;1.27;;
35518;SDS011;21627;48.216;16.482;2023-04-25T14:36:01;15.95;;;1.65;;
35518;SDS011;21627;48.216;16.482;2023-04-25T14:38:28;1.98;;;1.50;;
35518;SDS011;21627;48.216;16.482;2023-04-25T14:40:55;2.40;;;1.50;;
35518;SDS011;21627;48.216;16.482;2023-04-25T14:43:23;6.47;;;1.65;;
35518;SDS011;21627;48.216;16.482;2023-04-25T14:45:50;2.08;;;1.42;;
35518;SDS011;21627;48.216;16.482;2023-04-25T14:48:17;3.78;;;1.35;;
35518;SDS011;21627;48.216;16.482;2023-04-25T14:50:46;3.10;;;1.45;;
35518;SDS011;21627;48.216;16.482;2023-04-25T14:53:13;10.82;;;1.33;;
35518;SDS011;21627;48.216;16.482;2023-04-25T14:55:40;3.08;;;1.23;;
35518;SDS011;21627;48.216;16.482;2023-04-25T14:58:07;5.72;;;1.40;;